Terminal Aerodrome Forecast
Issued by NWS

Home | Current Version | Previous Version | Text Only | Print | Product List | Glossary On
Versions: 1 2 3 4 5 6 7 8 9 10 11 12 13 14 15 16 17 18 19 20 21 22 23 24 25 26 27 28 29 30 31 32 33 34 35 36
181
FTUS42 KCAE 192038 AAA
TAFDNL
TAF AMD
KDNL 192038Z 1921/2018 VRB04KT P6SM SCT025
     FM200600 VRB03KT 1/2SM FG VV003
     FM201500 VRB04KT 2SM BR BKN008
     FM201700 18006KT P6SM BKN015=

USA.gov is the U.S. government's official web portal to all federal, state and local government web resources and services.